sensor_id;sensor_type;location;lat;lon;timestamp;temperature;humidity
10312;DHT22;5201;48.776;9.128;2023-03-23T00:01:29;14.60;93.90
10312;DHT22;5201;48.776;9.128;2023-03-23T00:04:03;14.70;94.10
10312;DHT22;5201;48.776;9.128;2023-03-23T00:06:28;14.80;94.00
10312;DHT22;5201;48.776;9.128;2023-03-23T00:09:00;14.70;93.90
10312;DHT22;5201;48.776;9.128;2023-03-23T00:11:30;14.70;94.10
10312;DHT22;5201;48.776;9.128;2023-03-23T00:13:58;14.80;94.10
10312;DHT22;5201;48.776;9.128;2023-03-23T00:16:28;14.80;94.10
10312;DHT22;5201;48.776;9.128;2023-03-23T00:18:54;14.80;94.30
10312;DHT22;5201;48.776;9.128;2023-03-23T00:21:22;14.70;94.20
10312;DHT22;5201;48.776;9.128;2023-03-23T00:23:53;14.60;94.50
10312;DHT22;5201;48.776;9.128;2023-03-23T00:26:19;14.40;94.50
10312;DHT22;5201;48.776;9.128;2023-03-23T00:28:45;14.50;94.80
10312;DHT22;5201;48.776;9.128;2023-03-23T00:31:12;14.60;94.80
10312;DHT22;5201;48.776;9.128;2023-03-23T00:33:39;14.60;95.10
10312;DHT22;5201;48.776;9.128;2023-03-23T00:36:10;14.40;94.90
10312;DHT22;5201;48.776;9.128;2023-03-23T00:38:38;14.40;95.10
10312;DHT22;5201;48.776;9.128;2023-03-23T00:41:04;14.50;95.00
10312;DHT22;5201;48.776;9.128;2023-03-23T00:43:31;14.50;94.80
10312;DHT22;5201;48.776;9.128;2023-03-23T00:45:58;14.40;95.00
10312;DHT22;5201;48.776;9.128;2023-03-23T00:48:27;15.00;95.20
10312;DHT22;5201;48.776;9.128;2023-03-23T00:50:54;14.40;95.00
10312;DHT22;5201;48.776;9.128;2023-03-23T00:53:20;15.00;95.30
10312;DHT22;5201;48.776;9.128;2023-03-23T00:55:47;14.50;94.90
10312;DHT22;5201;48.776;9.128;2023-03-23T00:58:13;14.40;94.90
10312;DHT22;5201;48.776;9.128;2023-03-23T01:00:40;14.40;94.90
10312;DHT22;5201;48.776;9.128;2023-03-23T01:03:07;14.50;94.90
10312;DHT22;5201;48.776;9.128;2023-03-23T01:05:37;14.60;94.80
10312;DHT22;5201;48.776;9.128;2023-03-23T01:08:04;14.60;94.70
10312;DHT22;5201;48.776;9.128;2023-03-23T01:10:30;14.60;94.70
10312;DHT22;5201;48.776;9.128;2023-03-23T01:13:01;14.60;94.80
10312;DHT22;5201;48.776;9.128;2023-03-23T01:15:28;14.70;94.60
10312;DHT22;5201;48.776;9.128;2023-03-23T01:17:55;14.80;94.50
10312;DHT22;5201;48.776;9.128;2023-03-23T01:20:21;14.80;94.40
10312;DHT22;5201;48.776;9.128;2023-03-23T01:22:46;14.80;94.50
10312;DHT22;5201;48.776;9.128;2023-03-23T01:25:12;15.50;94.90
10312;DHT22;5201;48.776;9.128;2023-03-23T01:27:39;14.60;94.70
10312;DHT22;5201;48.776;9.128;2023-03-23T01:30:05;14.70;94.80
10312;DHT22;5201;48.776;9.128;2023-03-23T01:32:32;14.60;94.80
10312;DHT22;5201;48.776;9.128;2023-03-23T01:34:58;14.90;94.80
10312;DHT22;5201;48.776;9.128;2023-03-23T01:37:24;14.70;94.60
10312;DHT22;5201;48.776;9.128;2023-03-23T01:39:53;15.10;94.80
10312;DHT22;5201;48.776;9.128;2023-03-23T01:42:24;14.70;94.60
10312;DHT22;5201;48.776;9.128;2023-03-23T01:47:16;14.60;94.80
10312;DHT22;5201;48.776;9.128;2023-03-23T01:49:46;14.60;94.50
10312;DHT22;5201;48.776;9.128;2023-03-23T01:52:22;14.50;94.40
10312;DHT22;5201;48.776;9.128;2023-03-23T01:54:49;14.50;94.60
10312;DHT22;5201;48.776;9.128;2023-03-23T01:57:19;14.60;94.50
10312;DHT22;5201;48.776;9.128;2023-03-23T01:59:49;14.70;94.40
10312;DHT22;5201;48.776;9.128;2023-03-23T02:02:18;14.50;94.40
10312;DHT22;5201;48.776;9.128;2023-03-23T02:04:45;14.50;94.50
10312;DHT22;5201;48.776;9.128;2023-03-23T02:07:12;14.60;94.50
10312;DHT22;5201;48.776;9.128;2023-03-23T02:09:39;14.60;94.10
10312;DHT22;5201;48.776;9.128;2023-03-23T02:12:05;14.50;94.30
10312;DHT22;5201;48.776;9.128;2023-03-23T02:14:31;14.40;94.40
10312;DHT22;5201;48.776;9.128;2023-03-23T02:25:32;14.00;95.40
10312;DHT22;5201;48.776;9.128;2023-03-23T02:33:25;14.40;95.00
10312;DHT22;5201;48.776;9.128;2023-03-23T02:35:59;14.40;95.20
10312;DHT22;5201;48.776;9.128;2023-03-23T02:39:04;14.40;95.40
10312;DHT22;5201;48.776;9.128;2023-03-23T02:41:36;14.40;95.70
10312;DHT22;5201;48.776;9.128;2023-03-23T02:44:03;14.40;95.70
10312;DHT22;5201;48.776;9.128;2023-03-23T02:46:30;14.40;95.50
10312;DHT22;5201;48.776;9.128;2023-03-23T02:48:58;14.30;95.70
10312;DHT22;5201;48.776;9.128;2023-03-23T02:51:24;14.90;96.00
10312;DHT22;5201;48.776;9.128;2023-03-23T02:53:51;14.30;96.20
10312;DHT22;5201;48.776;9.128;2023-03-23T02:56:18;14.30;95.90
10312;DHT22;5201;48.776;9.128;2023-03-23T02:58:45;14.40;95.80
10312;DHT22;5201;48.776;9.128;2023-03-23T03:03:54;14.10;95.90
10312;DHT22;5201;48.776;9.128;2023-03-23T03:11:29;14.30;95.90
10312;DHT22;5201;48.776;9.128;2023-03-23T03:14:06;14.30;95.80
10312;DHT22;5201;48.776;9.128;2023-03-23T03:16:39;14.40;95.90
10312;DHT22;5201;48.776;9.128;2023-03-23T03:22:09;14.40;95.50
10312;DHT22;5201;48.776;9.128;2023-03-23T03:24:36;15.10;96.10
10312;DHT22;5201;48.776;9.128;2023-03-23T03:27:04;14.50;95.90
10312;DHT22;5201;48.776;9.128;2023-03-23T03:29:38;14.60;95.80
10312;DHT22;5201;48.776;9.128;2023-03-23T03:32:10;14.50;95.50
10312;DHT22;5201;48.776;9.128;2023-03-23T03:34:37;14.50;95.50
10312;DHT22;5201;48.776;9.128;2023-03-23T03:37:04;14.50;95.50
10312;DHT22;5201;48.776;9.128;2023-03-23T03:39:35;14.40;95.40
10312;DHT22;5201;48.776;9.128;2023-03-23T03:42:01;14.50;95.40
10312;DHT22;5201;48.776;9.128;2023-03-23T03:44:27;14.60;95.50
10312;DHT22;5201;48.776;9.128;2023-03-23T03:46:52;14.50;95.30
10312;DHT22;5201;48.776;9.128;2023-03-23T03:49:18;14.50;95.40
10312;DHT22;5201;48.776;9.128;2023-03-23T03:51:44;15.10;95.80
10312;DHT22;5201;48.776;9.128;2023-03-23T03:54:10;14.60;95.70
10312;DHT22;5201;48.776;9.128;2023-03-23T03:56:36;14.40;95.60
10312;DHT22;5201;48.776;9.128;2023-03-23T03:59:09;14.40;95.60
10312;DHT22;5201;48.776;9.128;2023-03-23T04:01:36;14.20;95.80
10312;DHT22;5201;48.776;9.128;2023-03-23T04:04:02;14.30;96.30
10312;DHT22;5201;48.776;9.128;2023-03-23T04:06:29;14.40;96.00
10312;DHT22;5201;48.776;9.128;2023-03-23T04:08:56;15.40;96.40
10312;DHT22;5201;48.776;9.128;2023-03-23T04:11:22;14.50;96.00
10312;DHT22;5201;48.776;9.128;2023-03-23T04:13:47;14.90;96.20
10312;DHT22;5201;48.776;9.128;2023-03-23T04:16:13;14.90;96.00
10312;DHT22;5201;48.776;9.128;2023-03-23T04:18:39;14.60;95.80
10312;DHT22;5201;48.776;9.128;2023-03-23T04:21:05;14.50;95.90
10312;DHT22;5201;48.776;9.128;2023-03-23T04:23:34;14.50;96.00
10312;DHT22;5201;48.776;9.128;2023-03-23T04:26:00;14.70;96.20
10312;DHT22;5201;48.776;9.128;2023-03-23T04:28:27;15.20;96.30
10312;DHT22;5201;48.776;9.128;2023-03-23T04:30:53;14.40;96.10
10312;DHT22;5201;48.776;9.128;2023-03-23T04:33:20;14.50;96.00
10312;DHT22;5201;48.776;9.128;2023-03-23T04:35:47;14.50;96.00
10312;DHT22;5201;48.776;9.128;2023-03-23T04:38:14;14.50;96.00
10312;DHT22;5201;48.776;9.128;2023-03-23T04:40:41;14.50;96.20
10312;DHT22;5201;48.776;9.128;2023-03-23T04:43:07;14.50;95.90
10312;DHT22;5201;48.776;9.128;2023-03-23T04:45:34;14.70;95.90
10312;DHT22;5201;48.776;9.128;2023-03-23T04:48:03;14.50;95.90
10312;DHT22;5201;48.776;9.128;2023-03-23T04:50:32;14.50;95.90
10312;DHT22;5201;48.776;9.128;2023-03-23T04:52:59;14.50;96.10
10312;DHT22;5201;48.776;9.128;2023-03-23T04:55:30;14.60;96.20
10312;DHT22;5201;48.776;9.128;2023-03-23T04:57:57;14.50;96.20
10312;DHT22;5201;48.776;9.128;2023-03-23T05:00:26;14.50;96.20
10312;DHT22;5201;48.776;9.128;2023-03-23T05:02:53;14.60;96.20
10312;DHT22;5201;48.776;9.128;2023-03-23T05:05:22;14.70;96.00
10312;DHT22;5201;48.776;9.128;2023-03-23T05:07:48;14.60;96.10
10312;DHT22;5201;48.776;9.128;2023-03-23T05:10:15;14.70;96.10
10312;DHT22;5201;48.776;9.128;2023-03-23T05:12:41;14.60;96.00
10312;DHT22;5201;48.776;9.128;2023-03-23T05:15:08;14.70;95.70
10312;DHT22;5201;48.776;9.128;2023-03-23T05:17:34;14.80;96.10
10312;DHT22;5201;48.776;9.128;2023-03-23T05:20:01;14.90;95.60
10312;DHT22;5201;48.776;9.128;2023-03-23T05:22:29;14.80;95.70
10312;DHT22;5201;48.776;9.128;2023-03-23T05:24:58;14.70;95.70
10312;DHT22;5201;48.776;9.128;2023-03-23T05:27:24;14.70;95.80
10312;DHT22;5201;48.776;9.128;2023-03-23T05:29:53;14.70;95.70
10312;DHT22;5201;48.776;9.128;2023-03-23T05:32:18;14.70;95.80
10312;DHT22;5201;48.776;9.128;2023-03-23T05:34:46;14.80;95.70
10312;DHT22;5201;48.776;9.128;2023-03-23T05:37:12;14.80;95.80
10312;DHT22;5201;48.776;9.128;2023-03-23T05:39:39;15.00;95.70
10312;DHT22;5201;48.776;9.128;2023-03-23T05:42:05;15.10;95.70
10312;DHT22;5201;48.776;9.128;2023-03-23T05:44:31;14.80;95.70
10312;DHT22;5201;48.776;9.128;2023-03-23T05:46:57;15.30;95.90
10312;DHT22;5201;48.776;9.128;2023-03-23T05:49:23;14.80;95.70
10312;DHT22;5201;48.776;9.128;2023-03-23T05:51:49;14.80;95.50
10312;DHT22;5201;48.776;9.128;2023-03-23T05:54:15;14.80;95.90
10312;DHT22;5201;48.776;9.128;2023-03-23T05:56:42;14.90;95.90
10312;DHT22;5201;48.776;9.128;2023-03-23T05:59:08;14.90;95.70
10312;DHT22;5201;48.776;9.128;2023-03-23T06:01:34;14.90;95.90
10312;DHT22;5201;48.776;9.128;2023-03-23T06:04:00;14.90;95.80
10312;DHT22;5201;48.776;9.128;2023-03-23T06:06:26;14.90;96.00
10312;DHT22;5201;48.776;9.128;2023-03-23T06:08:52;15.00;95.70
10312;DHT22;5201;48.776;9.128;2023-03-23T06:11:18;15.00;95.70
10312;DHT22;5201;48.776;9.128;2023-03-23T06:13:44;15.00;95.60
10312;DHT22;5201;48.776;9.128;2023-03-23T06:16:10;14.90;95.90
10312;DHT22;5201;48.776;9.128;2023-03-23T06:18:36;14.90;96.10
10312;DHT22;5201;48.776;9.128;2023-03-23T06:21:03;15.00;96.20
10312;DHT22;5201;48.776;9.128;2023-03-23T06:23:29;15.10;96.40
10312;DHT22;5201;48.776;9.128;2023-03-23T06:26:00;15.10;96.20
10312;DHT22;5201;48.776;9.128;2023-03-23T06:28:27;15.80;96.70
10312;DHT22;5201;48.776;9.128;2023-03-23T06:30:52;15.20;96.50
10312;DHT22;5201;48.776;9.128;2023-03-23T06:33:19;15.10;97.00
10312;DHT22;5201;48.776;9.128;2023-03-23T06:35:44;15.00;96.90
10312;DHT22;5201;48.776;9.128;2023-03-23T06:38:10;15.10;96.90
10312;DHT22;5201;48.776;9.128;2023-03-23T06:40:36;15.00;97.20
10312;DHT22;5201;48.776;9.128;2023-03-23T06:43:02;15.00;97.10
10312;DHT22;5201;48.776;9.128;2023-03-23T06:45:29;15.00;97.10
10312;DHT22;5201;48.776;9.128;2023-03-23T06:47:55;15.10;96.90
10312;DHT22;5201;48.776;9.128;2023-03-23T06:50:20;14.90;97.00
10312;DHT22;5201;48.776;9.128;2023-03-23T06:52:47;14.90;97.10
10312;DHT22;5201;48.776;9.128;2023-03-23T06:55:14;15.40;97.50
10312;DHT22;5201;48.776;9.128;2023-03-23T06:57:40;15.10;97.00
10312;DHT22;5201;48.776;9.128;2023-03-23T07:00:07;15.10;97.00
10312;DHT22;5201;48.776;9.128;2023-03-23T07:02:34;15.30;97.00
10312;DHT22;5201;48.776;9.128;2023-03-23T07:05:01;15.40;96.70
10312;DHT22;5201;48.776;9.128;2023-03-23T07:07:26;15.50;96.70
10312;DHT22;5201;48.776;9.128;2023-03-23T07:09:52;15.50;96.40
10312;DHT22;5201;48.776;9.128;2023-03-23T07:12:18;15.50;96.30
10312;DHT22;5201;48.776;9.128;2023-03-23T07:14:43;15.50;96.70
10312;DHT22;5201;48.776;9.128;2023-03-23T07:17:09;15.60;96.80
10312;DHT22;5201;48.776;9.128;2023-03-23T07:19:35;15.50;96.40
10312;DHT22;5201;48.776;9.128;2023-03-23T07:22:01;15.50;96.40
10312;DHT22;5201;48.776;9.128;2023-03-23T07:24:27;15.50;96.80
10312;DHT22;5201;48.776;9.128;2023-03-23T07:26:53;15.50;96.80
10312;DHT22;5201;48.776;9.128;2023-03-23T07:29:18;15.50;96.70
10312;DHT22;5201;48.776;9.128;2023-03-23T07:31:44;15.80;96.90
10312;DHT22;5201;48.776;9.128;2023-03-23T07:34:09;15.30;96.90
10312;DHT22;5201;48.776;9.128;2023-03-23T07:36:35;15.30;96.80
10312;DHT22;5201;48.776;9.128;2023-03-23T07:39:03;15.40;96.70
10312;DHT22;5201;48.776;9.128;2023-03-23T07:41:31;15.40;96.80
10312;DHT22;5201;48.776;9.128;2023-03-23T07:43:56;15.50;96.70
10312;DHT22;5201;48.776;9.128;2023-03-23T07:46:22;15.60;96.60
10312;DHT22;5201;48.776;9.128;2023-03-23T07:48:48;15.50;96.50
10312;DHT22;5201;48.776;9.128;2023-03-23T07:51:14;15.50;96.70
10312;DHT22;5201;48.776;9.128;2023-03-23T07:53:42;15.70;96.50
10312;DHT22;5201;48.776;9.128;2023-03-23T07:56:10;15.70;96.80
10312;DHT22;5201;48.776;9.128;2023-03-23T07:58:36;15.90;96.70
10312;DHT22;5201;48.776;9.128;2023-03-23T08:01:02;15.90;96.80
10312;DHT22;5201;48.776;9.128;2023-03-23T08:03:28;16.00;96.90
10312;DHT22;5201;48.776;9.128;2023-03-23T08:05:57;16.60;96.90
10312;DHT22;5201;48.776;9.128;2023-03-23T08:08:25;16.10;97.30
10312;DHT22;5201;48.776;9.128;2023-03-23T08:10:50;16.10;97.10
10312;DHT22;5201;48.776;9.128;2023-03-23T08:13:16;16.60;97.20
10312;DHT22;5201;48.776;9.128;2023-03-23T08:15:42;16.30;97.10
10312;DHT22;5201;48.776;9.128;2023-03-23T08:18:08;16.30;97.30
10312;DHT22;5201;48.776;9.128;2023-03-23T08:20:34;16.30;97.40
10312;DHT22;5201;48.776;9.128;2023-03-23T08:23:00;16.30;97.50
10312;DHT22;5201;48.776;9.128;2023-03-23T08:25:28;16.20;97.90
10312;DHT22;5201;48.776;9.128;2023-03-23T08:27:57;16.30;97.90
10312;DHT22;5201;48.776;9.128;2023-03-23T08:30:23;16.00;98.10
10312;DHT22;5201;48.776;9.128;2023-03-23T08:32:50;16.10;98.20
10312;DHT22;5201;48.776;9.128;2023-03-23T08:35:16;15.90;98.40
10312;DHT22;5201;48.776;9.128;2023-03-23T08:37:42;16.00;98.60
10312;DHT22;5201;48.776;9.128;2023-03-23T08:40:10;15.90;98.80
10312;DHT22;5201;48.776;9.128;2023-03-23T08:42:37;15.80;98.80
10312;DHT22;5201;48.776;9.128;2023-03-23T08:45:05;16.20;99.20
10312;DHT22;5201;48.776;9.128;2023-03-23T08:47:33;15.80;99.10
10312;DHT22;5201;48.776;9.128;2023-03-23T08:49:58;15.90;99.20
10312;DHT22;5201;48.776;9.128;2023-03-23T08:52:24;15.90;99.20
10312;DHT22;5201;48.776;9.128;2023-03-23T08:54:50;15.80;99.20
10312;DHT22;5201;48.776;9.128;2023-03-23T08:57:15;15.80;99.30
10312;DHT22;5201;48.776;9.128;2023-03-23T08:59:41;15.80;99.40
10312;DHT22;5201;48.776;9.128;2023-03-23T09:02:10;16.10;99.50
10312;DHT22;5201;48.776;9.128;2023-03-23T09:04:37;15.90;99.50
10312;DHT22;5201;48.776;9.128;2023-03-23T09:07:03;16.10;99.80
10312;DHT22;5201;48.776;9.128;2023-03-23T09:09:29;16.40;99.90
10312;DHT22;5201;48.776;9.128;2023-03-23T09:11:54;15.80;99.60
10312;DHT22;5201;48.776;9.128;2023-03-23T09:14:21;15.90;99.60
10312;DHT22;5201;48.776;9.128;2023-03-23T09:16:47;16.10;99.50
10312;DHT22;5201;48.776;9.128;2023-03-23T09:19:12;16.10;99.50
10312;DHT22;5201;48.776;9.128;2023-03-23T09:21:38;16.10;99.30
10312;DHT22;5201;48.776;9.128;2023-03-23T09:24:04;16.10;99.50
10312;DHT22;5201;48.776;9.128;2023-03-23T09:26:31;16.20;99.10
10312;DHT22;5201;48.776;9.128;2023-03-23T09:28:57;16.20;99.30
10312;DHT22;5201;48.776;9.128;2023-03-23T09:31:23;16.30;99.40
10312;DHT22;5201;48.776;9.128;2023-03-23T09:33:53;16.10;99.10
10312;DHT22;5201;48.776;9.128;2023-03-23T09:36:21;16.00;99.20
10312;DHT22;5201;48.776;9.128;2023-03-23T09:38:48;15.80;99.60
10312;DHT22;5201;48.776;9.128;2023-03-23T09:41:36;15.90;99.40
10312;DHT22;5201;48.776;9.128;2023-03-23T09:52:46;16.00;99.70
10312;DHT22;5201;48.776;9.128;2023-03-23T09:55:16;16.20;99.80
10312;DHT22;5201;48.776;9.128;2023-03-23T10:01:19;16.00;99.60
10312;DHT22;5201;48.776;9.128;2023-03-23T10:03:47;15.90;99.90
10312;DHT22;5201;48.776;9.128;2023-03-23T10:06:15;16.20;99.80
10312;DHT22;5201;48.776;9.128;2023-03-23T10:09:04;16.40;99.60
10312;DHT22;5201;48.776;9.128;2023-03-23T10:11:47;16.60;99.40
10312;DHT22;5201;48.776;9.128;2023-03-23T10:17:28;16.90;99.90
10312;DHT22;5201;48.776;9.128;2023-03-23T10:22:55;17.10;99.50
10312;DHT22;5201;48.776;9.128;2023-03-23T10:25:26;17.00;98.80
10312;DHT22;5201;48.776;9.128;2023-03-23T10:28:05;16.80;99.20
10312;DHT22;5201;48.776;9.128;2023-03-23T10:30:38;17.00;99.50
10312;DHT22;5201;48.776;9.128;2023-03-23T10:35:40;17.40;99.70
10312;DHT22;5201;48.776;9.128;2023-03-23T10:38:23;17.10;99.10
10312;DHT22;5201;48.776;9.128;2023-03-23T10:40:57;17.20;99.50
10312;DHT22;5201;48.776;9.128;2023-03-23T10:43:27;17.10;99.30
10312;DHT22;5201;48.776;9.128;2023-03-23T10:46:16;16.90;99.50
10312;DHT22;5201;48.776;9.128;2023-03-23T10:48:45;17.00;99.80
10312;DHT22;5201;48.776;9.128;2023-03-23T10:51:18;16.90;99.80
10312;DHT22;5201;48.776;9.128;2023-03-23T10:53:50;16.90;99.80
10312;DHT22;5201;48.776;9.128;2023-03-23T10:56:40;16.90;99.80
10312;DHT22;5201;48.776;9.128;2023-03-23T10:59:14;17.00;99.60
10312;DHT22;5201;48.776;9.128;2023-03-23T11:01:44;17.20;99.90
10312;DHT22;5201;48.776;9.128;2023-03-23T11:04:15;17.60;99.70
10312;DHT22;5201;48.776;9.128;2023-03-23T11:06:48;17.70;99.00
10312;DHT22;5201;48.776;9.128;2023-03-23T11:09:20;17.80;98.70
10312;DHT22;5201;48.776;9.128;2023-03-23T11:11:51;18.00;98.90
10312;DHT22;5201;48.776;9.128;2023-03-23T11:14:27;17.70;98.60
10312;DHT22;5201;48.776;9.128;2023-03-23T11:16:58;17.80;98.80
10312;DHT22;5201;48.776;9.128;2023-03-23T11:19:33;17.60;98.80
10312;DHT22;5201;48.776;9.128;2023-03-23T11:24:35;17.40;99.80
10312;DHT22;5201;48.776;9.128;2023-03-23T11:27:03;17.50;99.90
10312;DHT22;5201;48.776;9.128;2023-03-23T11:29:33;17.60;99.60
10312;DHT22;5201;48.776;9.128;2023-03-23T11:34:56;17.70;99.00
10312;DHT22;5201;48.776;9.128;2023-03-23T11:37:35;17.60;99.30
10312;DHT22;5201;48.776;9.128;2023-03-23T11:45:30;17.80;98.70
10312;DHT22;5201;48.776;9.128;2023-03-23T11:50:56;18.20;98.40
10312;DHT22;5201;48.776;9.128;2023-03-23T11:53:53;18.10;98.20
10312;DHT22;5201;48.776;9.128;2023-03-23T11:56:34;18.30;98.30
10312;DHT22;5201;48.776;9.128;2023-03-23T11:59:00;18.60;98.30
10312;DHT22;5201;48.776;9.128;2023-03-23T12:13:14;18.20;97.30
10312;DHT22;5201;48.776;9.128;2023-03-23T12:15:52;18.10;97.60
10312;DHT22;5201;48.776;9.128;2023-03-23T12:21:38;18.10;97.00
10312;DHT22;5201;48.776;9.128;2023-03-23T12:27:06;18.20;97.40
10312;DHT22;5201;48.776;9.128;2023-03-23T12:34:55;18.20;96.80
10312;DHT22;5201;48.776;9.128;2023-03-23T12:37:59;18.00;96.90
10312;DHT22;5201;48.776;9.128;2023-03-23T12:43:28;18.10;97.40
10312;DHT22;5201;48.776;9.128;2023-03-23T12:46:35;18.30;97.20
10312;DHT22;5201;48.776;9.128;2023-03-23T12:51:44;18.70;97.10
10312;DHT22;5201;48.776;9.128;2023-03-23T12:54:21;18.70;97.10
10312;DHT22;5201;48.776;9.128;2023-03-23T12:59:44;18.80;97.40
10312;DHT22;5201;48.776;9.128;2023-03-23T13:07:32;18.70;97.60
10312;DHT22;5201;48.776;9.128;2023-03-23T13:10:21;18.80;97.70
10312;DHT22;5201;48.776;9.128;2023-03-23T13:12:49;18.80;97.00
10312;DHT22;5201;48.776;9.128;2023-03-23T13:23:30;18.50;97.20
10312;DHT22;5201;48.776;9.128;2023-03-23T13:26:00;18.60;97.20
10312;DHT22;5201;48.776;9.128;2023-03-23T13:28:32;18.50;97.10
10312;DHT22;5201;48.776;9.128;2023-03-23T13:31:04;18.60;97.10
10312;DHT22;5201;48.776;9.128;2023-03-23T13:33:36;18.60;97.20
10312;DHT22;5201;48.776;9.128;2023-03-23T13:36:09;18.70;97.00
10312;DHT22;5201;48.776;9.128;2023-03-23T13:38:35;18.80;97.10
10312;DHT22;5201;48.776;9.128;2023-03-23T13:41:11;19.00;96.90
10312;DHT22;5201;48.776;9.128;2023-03-23T13:43:40;18.80;96.90
10312;DHT22;5201;48.776;9.128;2023-03-23T13:46:09;18.80;96.80
10312;DHT22;5201;48.776;9.128;2023-03-23T13:49:02;18.80;96.80
10312;DHT22;5201;48.776;9.128;2023-03-23T13:54:43;18.70;96.20
10312;DHT22;5201;48.776;9.128;2023-03-23T13:57:25;18.40;96.00
10312;DHT22;5201;48.776;9.128;2023-03-23T13:59:59;18.00;97.00
10312;DHT22;5201;48.776;9.128;2023-03-23T14:02:37;18.00;96.90
10312;DHT22;5201;48.776;9.128;2023-03-23T14:08:01;17.90;96.90
10312;DHT22;5201;48.776;9.128;2023-03-23T14:10:54;18.10;97.30
10312;DHT22;5201;48.776;9.128;2023-03-23T14:16:42;18.50;97.10
10312;DHT22;5201;48.776;9.128;2023-03-23T14:19:27;18.60;96.50
10312;DHT22;5201;48.776;9.128;2023-03-23T14:21:59;18.20;96.80
10312;DHT22;5201;48.776;9.128;2023-03-23T14:24:30;18.30;96.80
10312;DHT22;5201;48.776;9.128;2023-03-23T14:27:23;18.20;96.80
10312;DHT22;5201;48.776;9.128;2023-03-23T14:30:05;18.30;96.80
10312;DHT22;5201;48.776;9.128;2023-03-23T14:32:32;18.40;96.60
10312;DHT22;5201;48.776;9.128;2023-03-23T14:35:00;18.30;96.80
10312;DHT22;5201;48.776;9.128;2023-03-23T14:37:30;18.50;97.00
10312;DHT22;5201;48.776;9.128;2023-03-23T14:39:57;18.90;96.00
10312;DHT22;5201;48.776;9.128;2023-03-23T14:42:35;18.30;96.20
10312;DHT22;5201;48.776;9.128;2023-03-23T14:45:05;18.40;96.00
10312;DHT22;5201;48.776;9.128;2023-03-23T14:47:38;18.20;95.70
10312;DHT22;5201;48.776;9.128;2023-03-23T14:50:23;18.20;96.20
10312;DHT22;5201;48.776;9.128;2023-03-23T14:52:49;18.30;96.10
10312;DHT22;5201;48.776;9.128;2023-03-23T14:55:22;18.50;95.80
10312;DHT22;5201;48.776;9.128;2023-03-23T14:57:49;18.50;95.50
10312;DHT22;5201;48.776;9.128;2023-03-23T15:00:19;18.30;95.60
10312;DHT22;5201;48.776;9.128;2023-03-23T15:02:49;18.20;95.50
10312;DHT22;5201;48.776;9.128;2023-03-23T15:05:27;18.00;95.60
10312;DHT22;5201;48.776;9.128;2023-03-23T15:07:56;17.90;95.70
10312;DHT22;5201;48.776;9.128;2023-03-23T15:10:24;17.90;95.70
10312;DHT22;5201;48.776;9.128;2023-03-23T15:12:51;17.80;95.70
10312;DHT22;5201;48.776;9.128;2023-03-23T15:15:26;17.80;95.70
10312;DHT22;5201;48.776;9.128;2023-03-23T15:17:53;17.90;95.40
10312;DHT22;5201;48.776;9.128;2023-03-23T15:20:23;17.90;95.40
10312;DHT22;5201;48.776;9.128;2023-03-23T15:22:49;17.90;95.30
10312;DHT22;5201;48.776;9.128;2023-03-23T15:25:22;17.90;95.40
10312;DHT22;5201;48.776;9.128;2023-03-23T15:27:52;17.90;95.30
10312;DHT22;5201;48.776;9.128;2023-03-23T15:32:53;17.70;95.00
10312;DHT22;5201;48.776;9.128;2023-03-23T15:35:21;17.70;95.10
10312;DHT22;5201;48.776;9.128;2023-03-23T15:37:58;17.60;94.70
10312;DHT22;5201;48.776;9.128;2023-03-23T15:40:26;17.50;95.20
10312;DHT22;5201;48.776;9.128;2023-03-23T15:43:22;17.50;95.00
10312;DHT22;5201;48.776;9.128;2023-03-23T15:46:00;17.50;95.10
10312;DHT22;5201;48.776;9.128;2023-03-23T15:51:18;17.60;94.80
10312;DHT22;5201;48.776;9.128;2023-03-23T15:53:45;17.70;95.00
10312;DHT22;5201;48.776;9.128;2023-03-23T15:56:12;17.90;95.00
10312;DHT22;5201;48.776;9.128;2023-03-23T15:58:38;17.40;95.00
10312;DHT22;5201;48.776;9.128;2023-03-23T16:01:20;17.20;95.20
10312;DHT22;5201;48.776;9.128;2023-03-23T16:03:50;17.50;95.40
10312;DHT22;5201;48.776;9.128;2023-03-23T16:06:20;17.30;95.40
10312;DHT22;5201;48.776;9.128;2023-03-23T16:08:46;17.80;95.50
10312;DHT22;5201;48.776;9.128;2023-03-23T16:11:14;17.40;95.30
10312;DHT22;5201;48.776;9.128;2023-03-23T16:13:40;17.30;95.20
10312;DHT22;5201;48.776;9.128;2023-03-23T16:16:19;17.10;95.30
10312;DHT22;5201;48.776;9.128;2023-03-23T16:18:46;17.00;95.40
10312;DHT22;5201;48.776;9.128;2023-03-23T16:21:12;16.90;95.50
10312;DHT22;5201;48.776;9.128;2023-03-23T16:23:37;17.00;95.70
10312;DHT22;5201;48.776;9.128;2023-03-23T16:26:05;16.80;95.60
10312;DHT22;5201;48.776;9.128;2023-03-23T16:28:31;16.80;95.80
10312;DHT22;5201;48.776;9.128;2023-03-23T16:30:56;17.80;96.20
10312;DHT22;5201;48.776;9.128;2023-03-23T16:33:22;16.90;95.50
10312;DHT22;5201;48.776;9.128;2023-03-23T16:35:48;17.00;95.50
10312;DHT22;5201;48.776;9.128;2023-03-23T16:38:14;17.40;95.90
10312;DHT22;5201;48.776;9.128;2023-03-23T16:40:42;17.20;95.60
10312;DHT22;5201;48.776;9.128;2023-03-23T16:43:08;16.90;95.60
10312;DHT22;5201;48.776;9.128;2023-03-23T16:45:34;17.00;95.90
10312;DHT22;5201;48.776;9.128;2023-03-23T16:48:00;16.90;95.90
10312;DHT22;5201;48.776;9.128;2023-03-23T16:50:27;17.10;96.20
10312;DHT22;5201;48.776;9.128;2023-03-23T16:52:54;17.00;95.90
10312;DHT22;5201;48.776;9.128;2023-03-23T16:55:20;17.00;96.00
10312;DHT22;5201;48.776;9.128;2023-03-23T16:57:46;17.00;95.80
10312;DHT22;5201;48.776;9.128;2023-03-23T17:00:16;16.80;96.00
10312;DHT22;5201;48.776;9.128;2023-03-23T17:02:45;16.90;96.10
10312;DHT22;5201;48.776;9.128;2023-03-23T17:05:12;17.00;96.00
10312;DHT22;5201;48.776;9.128;2023-03-23T17:07:40;17.20;96.10
10312;DHT22;5201;48.776;9.128;2023-03-23T17:10:07;17.00;96.10
10312;DHT22;5201;48.776;9.128;2023-03-23T17:12:33;17.00;96.00
10312;DHT22;5201;48.776;9.128;2023-03-23T17:15:00;16.90;96.20
10312;DHT22;5201;48.776;9.128;2023-03-23T17:17:25;16.90;96.40
10312;DHT22;5201;48.776;9.128;2023-03-23T17:19:51;16.70;96.30
10312;DHT22;5201;48.776;9.128;2023-03-23T17:22:17;16.50;96.60
10312;DHT22;5201;48.776;9.128;2023-03-23T17:24:43;16.40;96.60
10312;DHT22;5201;48.776;9.128;2023-03-23T17:27:10;16.40;96.80
10312;DHT22;5201;48.776;9.128;2023-03-23T17:29:35;16.30;96.80
10312;DHT22;5201;48.776;9.128;2023-03-23T17:32:01;16.40;97.00
10312;DHT22;5201;48.776;9.128;2023-03-23T17:34:26;16.50;97.00
10312;DHT22;5201;48.776;9.128;2023-03-23T17:36:52;16.60;97.00
10312;DHT22;5201;48.776;9.128;2023-03-23T17:39:18;16.60;96.80
10312;DHT22;5201;48.776;9.128;2023-03-23T17:41:43;16.60;96.80
10312;DHT22;5201;48.776;9.128;2023-03-23T17:44:09;16.50;96.90
10312;DHT22;5201;48.776;9.128;2023-03-23T17:46:34;16.60;97.10
10312;DHT22;5201;48.776;9.128;2023-03-23T17:49:00;16.60;97.20
10312;DHT22;5201;48.776;9.128;2023-03-23T17:51:26;16.40;97.20
10312;DHT22;5201;48.776;9.128;2023-03-23T17:53:51;16.30;97.40
10312;DHT22;5201;48.776;9.128;2023-03-23T17:56:17;16.30;97.40
10312;DHT22;5201;48.776;9.128;2023-03-23T17:58:43;16.60;97.70